Time;durP1;ratioP1;P1;durP2;ratioP2;P2;SDS_P1;SDS_P2;PMS_P1;PMS_P2;Temp;Humidity;BMP_temperature;BMP_pressure;BME280_temperature;BME280_humidity;BME280_pressure;Samples;Min_cycle;Max_cycle;Signal;HPM_P1;HPM_P2
2024/03/29 00:00:16;;;;;;;7.70;6.85;;;;;;;;;;5023893;28;20068;-63
2024/03/29 00:02:45;;;;;;;9.85;5.18;;;;;;;;;;5029064;28;20033;-63
2024/03/29 00:05:11;;;;;;;8.60;5.32;;;;;;;;;;5032018;28;20071;-63
2024/03/29 00:07:37;;;;;;;8.85;4.45;;;;;;;;;;5045185;28;20641;-63
2024/03/29 00:10:04;;;;;;;5.45;4.70;;;;;;;;;;5042194;28;20029;-64
2024/03/29 00:12:30;;;;;;;9.18;6.43;;;;;;;;;;5043414;28;20030;-64
2024/03/29 00:14:56;;;;;;;8.88;5.78;;;;;;;;;;5043502;28;20419;-63
2024/03/29 00:17:22;;;;;;;11.02;5.82;;;;;;;;;;5043757;28;20140;-63
2024/03/29 00:19:48;;;;;;;8.48;6.20;;;;;;;;;;5028733;28;20597;-64
2024/03/29 00:22:15;;;;;;;13.38;5.65;;;;;;;;;;5028297;28;20083;-63
2024/03/29 00:24:41;;;;;;;8.95;5.20;;;;;;;;;;5021866;28;20042;-63
2024/03/29 00:27:07;;;;;;;10.23;6.50;;;;;;;;;;5048225;28;20108;-63
2024/03/29 00:29:33;;;;;;;8.07;5.82;;;;;;;;;;5047058;28;20044;-63
2024/03/29 00:31:59;;;;;;;9.05;6.38;;;;;;;;;;5049113;28;20112;-63
2024/03/29 00:34:25;;;;;;;9.77;6.53;;;;;;;;;;5029022;28;20032;-63
2024/03/29 00:36:52;;;;;;;11.15;7.28;;;;;;;;;;5044771;28;20080;-63
2024/03/29 00:39:18;;;;;;;10.88;6.15;;;;;;;;;;5048734;28;20638;-63
2024/03/29 00:41:44;;;;;;;15.93;8.02;;;;;;;;;;5042814;28;20087;-63
2024/03/29 00:44:11;;;;;;;12.88;7.43;;;;;;;;;;5047467;28;20039;-63
2024/03/29 00:46:37;;;;;;;12.63;5.93;;;;;;;;;;5034166;28;20654;-63
2024/03/29 00:49:03;;;;;;;14.73;6.93;;;;;;;;;;5054006;28;20059;-65
2024/03/29 00:51:29;;;;;;;9.60;6.70;;;;;;;;;;5042556;28;20018;-64
2024/03/29 00:53:55;;;;;;;11.15;8.20;;;;;;;;;;5052013;28;20025;-63
2024/03/29 00:56:21;;;;;;;5.40;4.25;;;;;;;;;;5044380;28;20037;-63
2024/03/29 00:58:48;;;;;;;6.10;4.80;;;;;;;;;;5042683;28;20075;-63
2024/03/29 01:01:14;;;;;;;5.82;4.07;;;;;;;;;;5027181;28;20033;-63
2024/03/29 01:03:40;;;;;;;5.82;4.47;;;;;;;;;;5048827;28;20017;-63
2024/03/29 01:06:06;;;;;;;9.40;3.90;;;;;;;;;;5045435;28;20043;-63
2024/03/29 01:08:32;;;;;;;4.00;3.58;;;;;;;;;;5044714;28;20025;-63
2024/03/29 01:10:58;;;;;;;6.20;4.03;;;;;;;;;;5038301;28;20511;-63
2024/03/29 01:13:25;;;;;;;4.53;3.45;;;;;;;;;;5030098;28;20021;-63
2024/03/29 01:15:51;;;;;;;7.63;3.47;;;;;;;;;;5036703;28;20064;-64
2024/03/29 01:18:17;;;;;;;6.65;3.35;;;;;;;;;;5037933;28;20048;-63
2024/03/29 01:20:43;;;;;;;7.70;4.70;;;;;;;;;;5044006;28;20075;-63
2024/03/29 01:23:09;;;;;;;4.25;3.60;;;;;;;;;;5045002;28;20027;-63
2024/03/29 01:25:35;;;;;;;4.68;3.10;;;;;;;;;;5043423;28;20028;-63
2024/03/29 01:28:02;;;;;;;7.60;3.58;;;;;;;;;;5038811;28;20055;-63
2024/03/29 01:30:28;;;;;;;4.53;3.45;;;;;;;;;;5035231;28;20038;-63
2024/03/29 01:32:55;;;;;;;4.15;3.75;;;;;;;;;;5021681;28;20079;-63
2024/03/29 01:35:21;;;;;;;4.18;3.80;;;;;;;;;;5038561;28;20391;-63
2024/03/29 01:37:47;;;;;;;4.88;3.08;;;;;;;;;;5040506;28;20112;-63
2024/03/29 01:40:13;;;;;;;2.92;2.55;;;;;;;;;;5038154;28;20102;-63
2024/03/29 01:42:39;;;;;;;3.28;2.83;;;;;;;;;;5044923;28;20508;-63
2024/03/29 01:45:06;;;;;;;2.45;2.25;;;;;;;;;;5046628;28;20061;-64
2024/03/29 01:47:32;;;;;;;3.08;2.85;;;;;;;;;;5039138;28;20576;-63
2024/03/29 01:49:58;;;;;;;3.78;2.45;;;;;;;;;;5038698;28;20037;-63
2024/03/29 01:52:24;;;;;;;4.25;1.90;;;;;;;;;;5033253;28;20085;-64
2024/03/29 01:54:51;;;;;;;2.88;2.03;;;;;;;;;;5041992;28;20089;-63
2024/03/29 01:57:17;;;;;;;1.55;1.40;;;;;;;;;;5044790;28;20037;-63
2024/03/29 01:59:44;;;;;;;1.70;1.60;;;;;;;;;;5037880;28;20033;-63
2024/03/29 02:02:11;;;;;;;6.57;1.80;;;;;;;;;;5024564;28;20424;-63
2024/03/29 02:04:37;;;;;;;3.63;1.60;;;;;;;;;;5037762;28;20059;-63
2024/03/29 02:07:04;;;;;;;4.82;2.00;;;;;;;;;;5040528;28;20582;-64
2024/03/29 02:09:30;;;;;;;6.03;2.15;;;;;;;;;;5026544;28;20040;-63
2024/03/29 02:11:56;;;;;;;1.50;1.40;;;;;;;;;;5029271;28;20040;-63
2024/03/29 02:14:23;;;;;;;6.80;1.85;;;;;;;;;;5022752;28;20598;-63
2024/03/29 02:16:49;;;;;;;9.35;1.83;;;;;;;;;;5039904;28;20422;-68
2024/03/29 02:19:15;;;;;;;4.40;2.00;;;;;;;;;;5041843;28;20767;-63
2024/03/29 02:21:43;;;;;;;8.25;1.65;;;;;;;;;;5040839;28;20553;-65
2024/03/29 02:24:10;;;;;;;6.70;1.98;;;;;;;;;;5042658;28;20029;-63
2024/03/29 02:26:41;;;;;;;2.85;1.70;;;;;;;;;;5036138;28;20035;-63
2024/03/29 02:29:07;;;;;;;10.93;2.95;;;;;;;;;;5038655;28;20225;-63
2024/03/29 02:31:33;;;;;;;5.18;2.70;;;;;;;;;;5038671;28;20072;-63
2024/03/29 02:33:59;;;;;;;2.25;2.05;;;;;;;;;;5025755;28;20044;-63
2024/03/29 02:36:25;;;;;;;3.30;1.98;;;;;;;;;;5036195;28;20416;-63
2024/03/29 02:38:52;;;;;;;2.45;2.25;;;;;;;;;;5042997;28;20032;-64
2024/03/29 02:41:18;;;;;;;1.45;1.45;;;;;;;;;;5028066;28;20119;-63
2024/03/29 02:43:44;;;;;;;7.03;2.20;;;;;;;;;;5019410;28;20039;-63
2024/03/29 02:46:11;;;;;;;3.78;2.25;;;;;;;;;;5038771;28;20057;-63
2024/03/29 02:48:37;;;;;;;10.63;2.03;;;;;;;;;;5039321;28;20523;-63
2024/03/29 02:51:03;;;;;;;2.03;1.80;;;;;;;;;;5036715;28;20102;-63
2024/03/29 02:53:29;;;;;;;3.05;2.15;;;;;;;;;;5027635;28;20043;-63
2024/03/29 02:55:55;;;;;;;2.10;1.90;;;;;;;;;;5043731;28;20018;-63
2024/03/29 02:58:21;;;;;;;3.53;2.00;;;;;;;;;;5027860;28;20142;-63
2024/03/29 03:00:47;;;;;;;1.58;1.48;;;;;;;;;;5024996;28;20492;-63
2024/03/29 03:03:17;;;;;;;2.70;1.85;;;;;;;;;;5041197;28;20040;-63
2024/03/29 03:05:43;;;;;;;1.83;1.77;;;;;;;;;;5039409;28;20029;-63
2024/03/29 03:11:05;;;;;;;8.10;2.17;;;;;;;;;;4956950;28;20094;-63
2024/03/29 03:13:31;;;;;;;4.20;2.63;;;;;;;;;;5042105;28;20033;-63
2024/03/29 03:15:57;;;;;;;1.60;1.50;;;;;;;;;;5038905;28;20037;-63
2024/03/29 03:18:23;;;;;;;5.70;2.13;;;;;;;;;;5041009;28;20365;-63
2024/03/29 03:20:59;;;;;;;3.80;2.88;;;;;;;;;;5035805;28;20033;-63
2024/03/29 03:23:25;;;;;;;1.95;1.85;;;;;;;;;;5036210;28;20041;-66
2024/03/29 03:26:03;;;;;;;1.75;1.60;;;;;;;;;;5036752;28;20040;-63
2024/03/29 03:28:30;;;;;;;1.83;1.73;;;;;;;;;;5041335;28;20020;-63
2024/03/29 03:30:56;;;;;;;1.73;1.45;;;;;;;;;;5023176;28;20078;-63
2024/03/29 03:33:23;;;;;;;1.83;1.58;;;;;;;;;;5007248;28;20029;-63
2024/03/29 03:35:49;;;;;;;3.45;2.00;;;;;;;;;;5038664;28;20492;-63
2024/03/29 03:38:16;;;;;;;2.83;2.10;;;;;;;;;;5041209;28;20025;-63
2024/03/29 03:40:42;;;;;;;3.20;1.83;;;;;;;;;;5046405;28;20039;-63
2024/03/29 03:43:08;;;;;;;2.63;2.03;;;;;;;;;;5025421;28;20029;-63
2024/03/29 03:45:44;;;;;;;3.05;2.38;;;;;;;;;;5035999;28;20484;-63
2024/03/29 03:48:11;;;;;;;6.00;1.60;;;;;;;;;;5039401;28;20038;-63
2024/03/29 03:50:38;;;;;;;3.42;2.45;;;;;;;;;;5041376;28;20029;-63
2024/03/29 03:53:04;;;;;;;2.30;2.05;;;;;;;;;;5032946;28;20025;-63
2024/03/29 03:55:30;;;;;;;1.10;1.10;;;;;;;;;;5022066;28;20044;-63
2024/03/29 03:57:57;;;;;;;4.95;1.60;;;;;;;;;;5043844;28;20543;-63
2024/03/29 04:00:23;;;;;;;1.70;1.60;;;;;;;;;;5043869;28;20067;-63
2024/03/29 04:02:58;;;;;;;1.30;1.27;;;;;;;;;;5024338;28;20033;-62
2024/03/29 04:05:27;;;;;;;1.20;1.20;;;;;;;;;;5041822;28;20020;-63
2024/03/29 04:07:53;;;;;;;2.55;1.60;;;;;;;;;;5036719;28;20021;-63
2024/03/29 04:10:19;;;;;;;2.03;1.83;;;;;;;;;;5019901;28;20029;-63
2024/03/29 04:12:45;;;;;;;2.67;1.27;;;;;;;;;;5039833;28;20061;-63
2024/03/29 04:15:11;;;;;;;3.63;1.42;;;;;;;;;;5031156;28;20036;-63
2024/03/29 04:17:38;;;;;;;1.80;1.70;;;;;;;;;;5012295;28;20025;-63
2024/03/29 04:20:04;;;;;;;1.60;1.50;;;;;;;;;;5033310;28;20035;-63
2024/03/29 04:22:31;;;;;;;2.85;1.95;;;;;;;;;;5034557;28;20041;-63
2024/03/29 04:24:57;;;;;;;2.20;2.00;;;;;;;;;;5016126;28;20128;-63
2024/03/29 04:27:23;;;;;;;1.80;1.70;;;;;;;;;;5041541;28;20476;-63
2024/03/29 04:29:56;;;;;;;2.97;1.70;;;;;;;;;;5035004;28;20034;-63
2024/03/29 04:32:22;;;;;;;1.88;1.52;;;;;;;;;;5042815;28;20071;-63
2024/03/29 04:34:49;;;;;;;2.53;1.92;;;;;;;;;;5028024;28;20112;-63
2024/03/29 04:37:15;;;;;;;2.55;2.15;;;;;;;;;;5041618;28;20040;-63
2024/03/29 04:39:43;;;;;;;2.90;2.38;;;;;;;;;;5045513;28;20040;-63
2024/03/29 04:42:09;;;;;;;1.85;1.75;;;;;;;;;;5046612;28;20472;-63
2024/03/29 04:44:35;;;;;;;1.63;1.52;;;;;;;;;;5049879;28;20029;-63
2024/03/29 04:47:01;;;;;;;1.95;1.85;;;;;;;;;;5040317;28;20391;-63
2024/03/29 04:49:34;;;;;;;6.22;1.90;;;;;;;;;;5037610;28;20365;-63
2024/03/29 04:52:00;;;;;;;4.40;2.15;;;;;;;;;;5043710;28;20111;-63
2024/03/29 04:54:27;;;;;;;2.42;1.85;;;;;;;;;;5025038;28;20028;-63
2024/03/29 04:56:53;;;;;;;1.60;1.50;;;;;;;;;;5041634;28;20501;-63
2024/03/29 04:59:20;;;;;;;6.00;1.85;;;;;;;;;;5023213;28;20481;-63
2024/03/29 05:01:50;;;;;;;1.40;1.30;;;;;;;;;;5045641;28;20056;-63
2024/03/29 05:04:25;;;;;;;4.35;2.50;;;;;;;;;;5041107;28;20487;-63
2024/03/29 05:06:54;;;;;;;1.58;1.48;;;;;;;;;;5046657;28;20037;-63
2024/03/29 05:09:21;;;;;;;1.70;1.30;;;;;;;;;;5044275;28;20036;-63
2024/03/29 05:11:47;;;;;;;4.00;1.67;;;;;;;;;;5047360;28;20108;-63
2024/03/29 05:14:18;;;;;;;1.75;1.65;;;;;;;;;;5045209;28;20221;-66
2024/03/29 05:16:45;;;;;;;1.80;1.63;;;;;;;;;;5036995;28;20026;-63
2024/03/29 05:19:12;;;;;;;4.20;2.15;;;;;;;;;;5040391;28;20396;-66
2024/03/29 05:21:38;;;;;;;3.55;1.75;;;;;;;;;;5041651;28;20090;-68
2024/03/29 05:24:04;;;;;;;2.97;2.40;;;;;;;;;;5039672;28;20037;-63
2024/03/29 05:26:30;;;;;;;2.15;1.90;;;;;;;;;;5025955;28;20468;-63
2024/03/29 05:29:00;;;;;;;2.25;2.00;;;;;;;;;;5035829;28;20024;-63
2024/03/29 05:31:26;;;;;;;2.75;2.05;;;;;;;;;;5043187;28;20076;-62
2024/03/29 05:33:53;;;;;;;2.15;1.95;;;;;;;;;;5040256;28;20080;-63
2024/03/29 05:36:19;;;;;;;2.35;2.00;;;;;;;;;;5027333;28;20522;-63
2024/03/29 05:38:45;;;;;;;2.17;1.98;;;;;;;;;;5021696;28;20481;-63
2024/03/29 05:41:12;;;;;;;3.20;2.00;;;;;;;;;;5026915;28;20033;-63
2024/03/29 05:43:41;;;;;;;2.92;1.95;;;;;;;;;;5041970;28;20508;-63
2024/03/29 05:46:07;;;;;;;1.83;1.70;;;;;;;;;;5037792;28;20087;-63
2024/03/29 05:48:33;;;;;;;1.30;1.30;;;;;;;;;;5019659;28;20406;-63
2024/03/29 05:51:00;;;;;;;1.25;1.25;;;;;;;;;;5042153;28;20028;-63
2024/03/29 05:53:26;;;;;;;7.32;1.50;;;;;;;;;;5019359;28;20033;-63
2024/03/29 05:55:52;;;;;;;1.77;1.20;;;;;;;;;;5042418;28;20037;-63
2024/03/29 05:58:20;;;;;;;1.23;1.23;;;;;;;;;;5038163;28;20372;-63
2024/03/29 06:00:46;;;;;;;2.13;1.90;;;;;;;;;;5030029;28;20400;-63
2024/03/29 06:03:12;;;;;;;1.80;1.67;;;;;;;;;;5036945;28;20025;-63
2024/03/29 06:05:40;;;;;;;2.72;2.22;;;;;;;;;;5038669;28;20033;-63
2024/03/29 06:08:06;;;;;;;4.15;2.85;;;;;;;;;;5033137;28;20504;-63
2024/03/29 06:10:32;;;;;;;2.63;2.38;;;;;;;;;;5044951;28;20036;-63
2024/03/29 06:13:07;;;;;;;2.42;2.03;;;;;;;;;;5035609;28;20079;-63
2024/03/29 06:18:19;;;;;;;3.38;1.50;;;;;;;;;;5042024;28;20039;-63
2024/03/29 06:20:45;;;;;;;5.68;1.40;;;;;;;;;;5039312;28;20040;-63
2024/03/29 06:23:12;;;;;;;1.20;1.20;;;;;;;;;;5042445;28;20025;-63
2024/03/29 06:25:39;;;;;;;2.30;1.58;;;;;;;;;;5041352;28;20392;-63
2024/03/29 06:28:06;;;;;;;8.07;3.22;;;;;;;;;;5039975;28;20029;-63
2024/03/29 06:30:32;;;;;;;1.42;1.40;;;;;;;;;;5039052;28;20048;-63
2024/03/29 06:33:00;;;;;;;1.70;1.60;;;;;;;;;;5034986;28;20053;-63
2024/03/29 06:35:26;;;;;;;2.55;2.35;;;;;;;;;;5040228;28;20043;-63
2024/03/29 06:37:52;;;;;;;1.33;1.30;;;;;;;;;;5042285;28;20522;-63
2024/03/29 06:40:19;;;;;;;3.55;2.42;;;;;;;;;;5022678;28;20034;-63
2024/03/29 06:42:45;;;;;;;3.92;3.20;;;;;;;;;;5036866;28;20051;-63
2024/03/29 06:45:11;;;;;;;3.10;2.08;;;;;;;;;;5041856;28;20341;-63
2024/03/29 06:47:37;;;;;;;2.40;2.20;;;;;;;;;;5032443;28;20025;-63
2024/03/29 06:50:03;;;;;;;3.08;2.53;;;;;;;;;;5039837;28;20107;-63
2024/03/29 06:52:30;;;;;;;3.05;2.65;;;;;;;;;;5034898;28;20021;-63
2024/03/29 06:54:56;;;;;;;6.25;3.20;;;;;;;;;;5041320;28;20033;-63
2024/03/29 06:57:25;;;;;;;5.95;2.28;;;;;;;;;;5037122;28;21386;-63
2024/03/29 06:59:51;;;;;;;2.97;2.00;;;;;;;;;;5036922;28;20039;-64
2024/03/29 07:02:17;;;;;;;1.63;1.55;;;;;;;;;;5026309;28;20021;-63
2024/03/29 07:04:43;;;;;;;7.93;1.70;;;;;;;;;;5015034;28;20029;-63
2024/03/29 07:07:09;;;;;;;2.78;1.65;;;;;;;;;;5032017;28;20032;-63
2024/03/29 07:09:36;;;;;;;5.95;1.52;;;;;;;;;;5041625;28;20060;-63
2024/03/29 07:12:02;;;;;;;3.80;1.73;;;;;;;;;;5042509;28;20053;-63
2024/03/29 07:14:29;;;;;;;1.17;1.17;;;;;;;;;;5039919;28;20103;-63
2024/03/29 07:16:56;;;;;;;2.17;1.52;;;;;;;;;;5021555;28;20040;-63
2024/03/29 07:19:22;;;;;;;1.40;1.40;;;;;;;;;;5037330;28;20401;-63
2024/03/29 07:21:52;;;;;;;1.33;1.33;;;;;;;;;;5044329;28;20116;-64
2024/03/29 07:24:18;;;;;;;1.50;1.40;;;;;;;;;;5030864;28;20060;-62
2024/03/29 07:26:44;;;;;;;1.80;1.70;;;;;;;;;;5043147;28;20037;-62
2024/03/29 07:29:11;;;;;;;1.20;1.20;;;;;;;;;;5029897;28;20100;-62
2024/03/29 07:31:37;;;;;;;3.20;1.70;;;;;;;;;;5036320;28;20045;-62
2024/03/29 07:34:03;;;;;;;1.58;1.48;;;;;;;;;;5033336;28;20030;-62
2024/03/29 07:36:35;;;;;;;2.88;1.52;;;;;;;;;;5026764;28;20063;-62
2024/03/29 07:39:01;;;;;;;1.58;1.48;;;;;;;;;;5040856;28;20155;-62
2024/03/29 07:41:28;;;;;;;1.48;1.48;;;;;;;;;;5037600;28;20106;-62
2024/03/29 07:43:59;;;;;;;1.40;1.40;;;;;;;;;;5044762;28;20033;-62
2024/03/29 07:46:25;;;;;;;1.20;1.20;;;;;;;;;;5033522;28;20047;-63
2024/03/29 07:48:51;;;;;;;1.10;1.10;;;;;;;;;;5042603;28;20495;-61
2024/03/29 07:51:17;;;;;;;3.67;1.55;;;;;;;;;;5034159;28;20056;-62
2024/03/29 07:53:43;;;;;;;7.75;1.50;;;;;;;;;;5033973;28;20474;-62
2024/03/29 07:56:09;;;;;;;1.23;1.23;;;;;;;;;;5037432;28;20465;-62
2024/03/29 07:58:36;;;;;;;2.85;1.50;;;;;;;;;;5013580;28;20060;-62
2024/03/29 08:01:02;;;;;;;1.15;1.15;;;;;;;;;;5034531;28;20037;-62
2024/03/29 08:03:28;;;;;;;1.20;1.20;;;;;;;;;;5029573;28;20041;-62
2024/03/29 08:05:57;;;;;;;3.90;1.13;;;;;;;;;;5036330;28;20388;-62
2024/03/29 08:08:24;;;;;;;1.98;1.55;;;;;;;;;;5038947;28;20408;-63
2024/03/29 08:10:51;;;;;;;1.38;1.38;;;;;;;;;;5044149;28;20016;-62
2024/03/29 08:13:20;;;;;;;1.35;1.35;;;;;;;;;;5035005;28;20021;-62
2024/03/29 08:15:47;;;;;;;1.35;1.33;;;;;;;;;;5037497;28;20116;-62
2024/03/29 08:18:13;;;;;;;1.65;1.40;;;;;;;;;;5026036;28;20086;-62
2024/03/29 08:20:39;;;;;;;1.67;1.58;;;;;;;;;;5021811;28;20033;-62
2024/03/29 08:23:05;;;;;;;2.35;1.67;;;;;;;;;;5039103;28;20037;-63
2024/03/29 08:25:31;;;;;;;1.20;1.15;;;;;;;;;;5038405;28;20033;-63
2024/03/29 08:28:01;;;;;;;1.38;1.33;;;;;;;;;;5040396;28;20508;-64
2024/03/29 08:30:34;;;;;;;1.20;1.15;;;;;;;;;;5038261;28;20037;-62
2024/03/29 08:33:02;;;;;;;2.13;1.35;;;;;;;;;;5039086;28;20017;-63
2024/03/29 08:35:28;;;;;;;1.23;1.23;;;;;;;;;;5037724;28;20033;-63
2024/03/29 08:37:55;;;;;;;2.03;1.60;;;;;;;;;;5040536;28;20060;-63
2024/03/29 08:40:22;;;;;;;6.97;2.22;;;;;;;;;;5026155;28;20025;-64
2024/03/29 08:42:48;;;;;;;6.22;1.55;;;;;;;;;;5039042;28;20297;-64
2024/03/29 08:45:14;;;;;;;3.83;1.58;;;;;;;;;;5041172;28;20884;-63
2024/03/29 08:47:40;;;;;;;2.80;1.60;;;;;;;;;;5025179;28;20534;-64
2024/03/29 08:50:07;;;;;;;1.50;1.40;;;;;;;;;;5040092;28;20079;-63
2024/03/29 08:52:33;;;;;;;5.63;2.85;;;;;;;;;;5022926;28;21285;-64
2024/03/29 08:55:00;;;;;;;1.38;1.27;;;;;;;;;;5043091;28;20029;-65
2024/03/29 08:57:26;;;;;;;5.20;1.30;;;;;;;;;;5023134;28;20037;-63
2024/03/29 08:59:52;;;;;;;1.83;1.73;;;;;;;;;;5040585;28;20455;-63
2024/03/29 09:02:19;;;;;;;1.00;1.00;;;;;;;;;;5040812;28;20025;-65
2024/03/29 09:04:45;;;;;;;4.25;2.35;;;;;;;;;;5039849;28;20079;-65
2024/03/29 09:07:11;;;;;;;9.23;1.75;;;;;;;;;;5039689;28;20033;-63
2024/03/29 09:09:41;;;;;;;2.97;1.35;;;;;;;;;;5036206;28;20396;-63
2024/03/29 09:12:07;;;;;;;2.45;1.23;;;;;;;;;;5040819;28;20631;-64
2024/03/29 09:14:33;;;;;;;3.65;1.35;;;;;;;;;;5025363;28;20025;-65
2024/03/29 09:17:01;;;;;;;1.60;1.50;;;;;;;;;;5025346;28;20115;-64
2024/03/29 09:19:27;;;;;;;6.32;1.55;;;;;;;;;;5036897;28;20116;-63
2024/03/29 09:21:54;;;;;;;1.83;1.70;;;;;;;;;;5040619;28;20559;-64
2024/03/29 09:24:22;;;;;;;3.35;1.58;;;;;;;;;;5043890;28;20460;-64
2024/03/29 09:26:50;;;;;;;4.43;1.60;;;;;;;;;;5024280;28;20037;-64
2024/03/29 09:29:17;;;;;;;1.65;1.40;;;;;;;;;;5038593;28;20490;-64
2024/03/29 09:31:44;;;;;;;2.72;1.20;;;;;;;;;;5038221;28;20041;-64
2024/03/29 09:34:10;;;;;;;1.13;1.13;;;;;;;;;;5035082;28;20024;-63
2024/03/29 09:36:36;;;;;;;1.50;1.15;;;;;;;;;;5038765;28;20148;-65
2024/03/29 09:39:04;;;;;;;1.50;1.40;;;;;;;;;;5022281;28;20033;-63
2024/03/29 09:41:35;;;;;;;1.48;1.33;;;;;;;;;;5023582;28;20037;-65
2024/03/29 09:44:03;;;;;;;1.55;1.45;;;;;;;;;;5042238;28;20036;-65
2024/03/29 09:46:29;;;;;;;2.35;1.42;;;;;;;;;;5035647;28;20033;-65
2024/03/29 09:48:56;;;;;;;4.57;1.60;;;;;;;;;;5038944;28;20024;-63
2024/03/29 09:51:22;;;;;;;3.22;1.77;;;;;;;;;;5038694;28;20507;-63
2024/03/29 09:53:49;;;;;;;2.25;1.50;;;;;;;;;;5021518;28;20071;-68
2024/03/29 09:56:15;;;;;;;2.47;2.13;;;;;;;;;;5023170;28;20083;-63
2024/03/29 09:58:41;;;;;;;4.65;1.55;;;;;;;;;;5040829;28;20106;-65
2024/03/29 10:01:10;;;;;;;2.83;1.50;;;;;;;;;;5038382;28;20122;-63
2024/03/29 10:03:39;;;;;;;2.05;1.65;;;;;;;;;;5038441;28;20021;-64
2024/03/29 10:06:08;;;;;;;2.65;1.58;;;;;;;;;;5036862;28;20103;-64
2024/03/29 10:08:34;;;;;;;1.45;1.45;;;;;;;;;;5038030;28;20035;-62
2024/03/29 10:11:01;;;;;;;1.85;1.40;;;;;;;;;;5036633;28;20636;-62
2024/03/29 10:13:28;;;;;;;4.22;1.83;;;;;;;;;;5037585;28;20159;-62
2024/03/29 10:15:57;;;;;;;2.60;1.65;;;;;;;;;;5038168;28;20529;-62
2024/03/29 10:18:25;;;;;;;4.18;1.80;;;;;;;;;;5037921;28;20487;-63
2024/03/29 10:21:04;;;;;;;1.55;1.45;;;;;;;;;;5041382;28;20514;-64
2024/03/29 10:23:31;;;;;;;5.68;1.63;;;;;;;;;;5036357;28;20028;-64
2024/03/29 10:25:58;;;;;;;3.28;2.13;;;;;;;;;;5036362;28;20071;-63
2024/03/29 10:28:24;;;;;;;3.03;2.20;;;;;;;;;;5036734;28;20021;-64
2024/03/29 10:30:51;;;;;;;5.22;1.85;;;;;;;;;;5034357;28;20325;-63
2024/03/29 10:33:17;;;;;;;2.35;1.27;;;;;;;;;;5039033;28;20040;-64
2024/03/29 10:35:44;;;;;;;1.73;1.55;;;;;;;;;;5037784;28;20501;-62
2024/03/29 10:38:10;;;;;;;1.95;1.17;;;;;;;;;;5035013;28;20432;-65
2024/03/29 10:40:40;;;;;;;1.48;1.38;;;;;;;;;;5039276;28;20447;-62
2024/03/29 10:43:12;;;;;;;2.30;1.70;;;;;;;;;;5038249;28;20028;-64
2024/03/29 10:45:38;;;;;;;8.13;1.77;;;;;;;;;;5036938;28;20047;-64
2024/03/29 10:48:07;;;;;;;6.75;1.63;;;;;;;;;;5039695;28;20024;-63
2024/03/29 10:50:36;;;;;;;2.15;1.30;;;;;;;;;;5031689;28;20025;-63
2024/03/29 10:53:02;;;;;;;4.65;1.50;;;;;;;;;;5038533;28;20021;-62
2024/03/29 10:55:30;;;;;;;5.82;1.58;;;;;;;;;;5040029;28;20056;-66
2024/03/29 10:57:58;;;;;;;3.58;1.85;;;;;;;;;;5039525;28;20474;-63
2024/03/29 11:00:25;;;;;;;6.90;2.38;;;;;;;;;;5020231;28;21151;-63
2024/03/29 11:02:57;;;;;;;2.05;1.60;;;;;;;;;;5441367;22;20172;-66
2024/03/29 11:05:24;;;;;;;3.35;1.63;;;;;;;;;;5024556;28;20043;-67
2024/03/29 11:07:50;;;;;;;3.53;1.52;;;;;;;;;;5036742;28;20139;-67
2024/03/29 11:10:31;;;;;;;5.95;1.73;;;;;;;;;;5057155;28;20475;-69
2024/03/29 11:12:57;;;;;;;2.60;1.63;;;;;;;;;;5040202;28;20756;-68
2024/03/29 11:15:28;;;;;;;2.15;2.05;;;;;;;;;;5043312;28;20104;-68
2024/03/29 11:17:55;;;;;;;3.80;1.50;;;;;;;;;;5061738;28;20037;-68
2024/03/29 11:20:28;;;;;;;4.32;1.60;;;;;;;;;;5041668;28;20031;-68
2024/03/29 11:22:54;;;;;;;7.35;1.85;;;;;;;;;;5044245;28;20029;-70
2024/03/29 11:25:20;;;;;;;1.35;1.27;;;;;;;;;;5046444;28;20136;-70
2024/03/29 11:27:48;;;;;;;2.70;1.55;;;;;;;;;;5042758;28;20029;-69
2024/03/29 11:30:18;;;;;;;1.27;1.27;;;;;;;;;;5046881;28;20032;-70
2024/03/29 11:32:44;;;;;;;1.20;1.20;;;;;;;;;;5038672;28;20055;-68
2024/03/29 11:35:17;;;;;;;3.67;1.42;;;;;;;;;;5043464;28;20025;-66
2024/03/29 11:37:43;;;;;;;1.13;1.13;;;;;;;;;;5042947;28;20025;-68
2024/03/29 11:40:13;;;;;;;2.78;1.25;;;;;;;;;;5046249;28;20025;-67
2024/03/29 11:42:47;;;;;;;2.90;1.65;;;;;;;;;;5038874;28;20435;-67
2024/03/29 11:45:13;;;;;;;4.03;1.42;;;;;;;;;;5047252;28;20021;-71
2024/03/29 11:47:41;;;;;;;1.90;1.70;;;;;;;;;;5041801;28;20486;-66
2024/03/29 11:50:08;;;;;;;3.22;1.98;;;;;;;;;;5042117;28;20017;-67
2024/03/29 11:52:35;;;;;;;2.92;1.80;;;;;;;;;;5041654;28;20411;-67
2024/03/29 11:55:01;;;;;;;2.55;2.03;;;;;;;;;;5042308;28;20448;-67
2024/03/29 11:57:28;;;;;;;2.47;1.85;;;;;;;;;;5038919;28;20040;-68
2024/03/29 11:59:54;;;;;;;2.05;1.48;;;;;;;;;;5041295;28;20406;-68
2024/03/29 12:02:20;;;;;;;1.63;1.35;;;;;;;;;;5039035;28;20078;-67
2024/03/29 12:04:46;;;;;;;3.30;1.77;;;;;;;;;;5042475;28;20411;-68
2024/03/29 12:07:12;;;;;;;1.50;1.50;;;;;;;;;;5039732;28;20013;-69
2024/03/29 12:09:39;;;;;;;1.48;1.38;;;;;;;;;;5038832;28;20032;-68
2024/03/29 12:12:09;;;;;;;5.93;1.60;;;;;;;;;;5040763;28;20364;-68
2024/03/29 12:14:37;;;;;;;1.45;1.35;;;;;;;;;;5048651;28;20029;-68
2024/03/29 12:17:14;;;;;;;11.63;1.88;;;;;;;;;;5039948;28;20045;-68
2024/03/29 12:19:45;;;;;;;4.95;1.70;;;;;;;;;;5037823;28;20036;-67
2024/03/29 12:22:11;;;;;;;5.88;2.00;;;;;;;;;;5041888;28;20021;-67
2024/03/29 12:24:37;;;;;;;3.28;1.52;;;;;;;;;;5051664;28;20060;-67
2024/03/29 12:27:05;;;;;;;5.07;1.75;;;;;;;;;;5062565;28;20032;-69
2024/03/29 12:29:32;;;;;;;5.65;1.65;;;;;;;;;;5045562;28;20013;-68
2024/03/29 12:32:02;;;;;;;1.67;1.40;;;;;;;;;;5043962;28;20167;-65
2024/03/29 12:34:28;;;;;;;2.13;1.70;;;;;;;;;;5047125;28;20023;-64
2024/03/29 12:36:54;;;;;;;1.80;1.70;;;;;;;;;;5040187;28;20410;-67
2024/03/29 12:39:20;;;;;;;2.67;1.73;;;;;;;;;;5039138;28;20480;-65
2024/03/29 12:41:49;;;;;;;4.50;1.70;;;;;;;;;;5033672;28;20158;-68
2024/03/29 12:44:16;;;;;;;3.80;2.08;;;;;;;;;;5055282;28;20025;-68
2024/03/29 12:46:42;;;;;;;3.78;2.47;;;;;;;;;;5037852;28;20025;-68
2024/03/29 12:49:12;;;;;;;5.50;1.85;;;;;;;;;;5038210;28;20033;-69
2024/03/29 12:51:40;;;;;;;2.72;2.17;;;;;;;;;;5037974;28;20404;-68
2024/03/29 12:54:07;;;;;;;2.00;1.77;;;;;;;;;;5037524;28;20079;-68
2024/03/29 12:56:36;;;;;;;1.85;1.70;;;;;;;;;;5043334;28;20033;-68
2024/03/29 12:59:04;;;;;;;5.93;1.30;;;;;;;;;;5041825;28;20043;-68
2024/03/29 13:01:31;;;;;;;3.53;2.08;;;;;;;;;;5058808;28;20098;-68
2024/03/29 13:03:57;;;;;;;3.65;1.50;;;;;;;;;;5042167;28;20114;-69
2024/03/29 13:06:23;;;;;;;3.55;1.30;;;;;;;;;;5042203;28;20381;-68
2024/03/29 13:08:50;;;;;;;5.43;1.75;;;;;;;;;;5037352;28;20488;-68
2024/03/29 13:11:16;;;;;;;6.63;1.80;;;;;;;;;;5039785;28;20025;-68
2024/03/29 13:13:42;;;;;;;6.30;1.80;;;;;;;;;;5043000;28;20637;-66
2024/03/29 13:16:09;;;;;;;3.40;1.55;;;;;;;;;;5038544;28;20043;-70
2024/03/29 13:18:35;;;;;;;3.28;1.73;;;;;;;;;;5044418;28;20558;-68
2024/03/29 13:21:02;;;;;;;2.67;1.60;;;;;;;;;;5035445;28;20057;-68
2024/03/29 13:23:32;;;;;;;1.65;1.55;;;;;;;;;;5039004;28;20064;-68
2024/03/29 13:26:00;;;;;;;9.02;1.92;;;;;;;;;;5038918;28;20537;-68
2024/03/29 13:28:26;;;;;;;2.13;1.45;;;;;;;;;;5039243;28;20275;-68
2024/03/29 13:30:52;;;;;;;2.42;2.22;;;;;;;;;;5040430;28;20419;-68
2024/03/29 13:33:18;;;;;;;2.78;1.60;;;;;;;;;;5042764;28;20029;-68
2024/03/29 13:35:45;;;;;;;1.20;1.20;;;;;;;;;;5039690;28;20032;-66
2024/03/29 13:38:12;;;;;;;2.47;1.80;;;;;;;;;;5041926;28;20021;-64
2024/03/29 13:40:39;;;;;;;2.00;1.70;;;;;;;;;;5039687;28;20136;-66
2024/03/29 13:43:06;;;;;;;2.17;1.88;;;;;;;;;;5041879;28;20024;-66
2024/03/29 13:45:32;;;;;;;3.00;1.60;;;;;;;;;;5039747;28;20029;-64
2024/03/29 13:47:58;;;;;;;2.75;1.50;;;;;;;;;;5039116;28;20048;-65
2024/03/29 13:50:25;;;;;;;2.08;1.85;;;;;;;;;;5036982;28;20030;-67
2024/03/29 13:52:51;;;;;;;3.08;1.60;;;;;;;;;;5020724;28;20027;-66
2024/03/29 13:55:17;;;;;;;1.52;1.42;;;;;;;;;;5037907;28;20439;-65
2024/03/29 13:57:44;;;;;;;1.60;1.33;;;;;;;;;;5046505;28;20658;-65
2024/03/29 14:00:14;;;;;;;2.97;1.63;;;;;;;;;;5047829;28;20293;-64
2024/03/29 14:02:40;;;;;;;4.68;2.05;;;;;;;;;;5032710;28;20052;-64
2024/03/29 14:05:07;;;;;;;1.67;1.52;;;;;;;;;;5054282;28;20096;-64
2024/03/29 14:07:33;;;;;;;2.25;1.20;;;;;;;;;;5037698;28;20037;-64
2024/03/29 14:10:03;;;;;;;2.75;1.65;;;;;;;;;;5056229;28;20025;-64
2024/03/29 14:12:29;;;;;;;3.60;1.45;;;;;;;;;;5040606;28;20059;-64
2024/03/29 14:14:56;;;;;;;1.65;1.55;;;;;;;;;;5044011;28;20127;-64
2024/03/29 14:17:23;;;;;;;5.60;1.50;;;;;;;;;;5046350;28;20119;-64
2024/03/29 14:19:49;;;;;;;4.00;1.75;;;;;;;;;;5038877;28;20052;-64
2024/03/29 14:22:18;;;;;;;3.67;1.40;;;;;;;;;;5045365;28;20034;-65
2024/03/29 14:24:44;;;;;;;2.55;1.60;;;;;;;;;;5049066;28;20040;-66
2024/03/29 14:27:12;;;;;;;2.30;1.30;;;;;;;;;;5044502;28;20072;-67
2024/03/29 14:29:39;;;;;;;0.93;0.93;;;;;;;;;;5035792;28;20290;-67
2024/03/29 14:32:05;;;;;;;1.90;1.33;;;;;;;;;;5036132;28;20047;-65
2024/03/29 14:34:37;;;;;;;1.60;1.42;;;;;;;;;;5042179;28;20056;-67
2024/03/29 14:37:04;;;;;;;4.03;1.58;;;;;;;;;;5040853;28;20082;-65
2024/03/29 14:39:31;;;;;;;2.80;1.45;;;;;;;;;;5044703;28;20029;-64
2024/03/29 14:42:01;;;;;;;3.65;1.50;;;;;;;;;;5045799;28;20083;-65
2024/03/29 14:44:29;;;;;;;1.70;1.48;;;;;;;;;;5047621;28;20150;-66
2024/03/29 14:46:56;;;;;;;3.75;2.08;;;;;;;;;;5058921;28;20025;-65